Time;durP1;ratioP1;P1;durP2;ratioP2;P2;SDS_P1;SDS_P2;PMS_P1;PMS_P2;Temp;Humidity;BMP_temperature;BMP_pressure;BME280_temperature;BME280_humidity;BME280_pressure;Samples;Min_cycle;Max_cycle;Signal;HPM_P1;HPM_P2
2021/12/05 00:23:40;;;;;;;24.80;14.43;;;4.00;99.90;;;;;;12498887;28;20080;-39
2021/12/05 00:30:08;;;;;;;30.08;17.60;;;4.00;99.90;;;;;;12497557;28;20045;-39
2021/12/05 01:19:30;;;;;;;45.85;24.92;;;3.90;99.90;;;;;;12501047;28;20129;-39
2021/12/05 01:25:43;;;;;;;49.65;25.50;;;3.90;99.90;;;;;;12496960;28;20096;-39
2021/12/05 01:38:17;;;;;;;39.00;24.58;;;4.00;99.90;;;;;;12496072;28;20049;-38
2021/12/05 01:44:56;;;;;;;42.58;23.85;;;4.00;99.90;;;;;;12498225;28;20061;-38
2021/12/05 02:41:46;;;;;;;;;;;4.00;99.90;;;;;;12502222;28;20048;-38
2021/12/05 02:47:51;;;;;;;37.65;19.27;;;4.00;99.90;;;;;;12503356;28;19972;-38
2021/12/05 02:54:04;;;;;;;35.35;16.85;;;4.00;99.90;;;;;;12501048;28;21065;-39
2021/12/05 03:00:11;;;;;;;27.92;15.15;;;4.00;99.90;;;;;;12499762;28;20140;-38
2021/12/05 03:06:21;;;;;;;27.77;15.02;;;4.00;99.90;;;;;;12502782;28;20136;-37
2021/12/05 03:12:23;;;;;;;29.77;13.13;;;4.00;99.90;;;;;;12504441;28;20073;-38
2021/12/05 03:18:25;;;;;;;24.48;10.00;;;3.90;99.90;;;;;;12517917;28;20891;-39
2021/12/05 03:24:29;;;;;;;18.17;8.80;;;3.90;99.90;;;;;;12500935;28;20114;-38
2021/12/05 03:30:32;;;;;;;20.23;7.63;;;3.90;99.90;;;;;;12493541;28;20076;-38
2021/12/05 03:36:36;;;;;;;15.10;7.10;;;3.90;99.90;;;;;;12498424;28;20078;-37
2021/12/05 03:42:38;;;;;;;19.05;6.00;;;3.90;99.90;;;;;;12495273;28;20045;-38
2021/12/05 03:48:48;;;;;;;17.70;6.13;;;3.90;99.90;;;;;;12498447;28;20512;-38
2021/12/05 03:54:50;;;;;;;19.50;6.60;;;3.90;99.90;;;;;;12490932;28;20481;-38
2021/12/05 04:00:57;;;;;;;17.35;5.63;;;3.90;99.90;;;;;;12501413;28;20080;-37
2021/12/05 04:07:00;;;;;;;15.18;4.60;;;3.80;99.90;;;;;;12498364;28;20048;-38
2021/12/05 04:13:04;;;;;;;18.20;5.35;;;3.80;99.90;;;;;;12500280;28;20524;-38
2021/12/05 04:19:07;;;;;;;13.48;4.82;;;3.80;99.90;;;;;;12491336;28;20058;-37
2021/12/05 04:25:11;;;;;;;16.58;5.55;;;3.80;99.90;;;;;;12497883;28;20612;-38
2021/12/05 04:31:15;;;;;;;16.55;5.38;;;3.80;99.90;;;;;;12495068;28;20044;-38
2021/12/05 04:37:17;;;;;;;17.53;4.70;;;3.80;99.90;;;;;;12496039;28;20050;-38
2021/12/05 04:43:19;;;;;;;9.98;4.32;;;3.90;99.90;;;;;;12497732;28;20521;-38
2021/12/05 04:49:24;;;;;;;18.20;4.53;;;3.80;99.90;;;;;;12490120;28;20509;-38
2021/12/05 04:55:27;;;;;;;14.60;4.90;;;3.80;99.90;;;;;;12495506;28;20292;-39
2021/12/05 05:01:29;;;;;;;20.05;4.97;;;3.80;99.90;;;;;;12491611;28;20045;-39
2021/12/05 05:07:32;;;;;;;13.88;4.47;;;3.80;99.90;;;;;;12498304;28;20478;-39
2021/12/05 05:13:39;;;;;;;13.18;4.60;;;3.80;99.90;;;;;;12493562;28;20045;-39
2021/12/05 05:19:50;;;;;;;19.88;5.32;;;3.70;99.90;;;;;;12486799;28;20068;-38
2021/12/05 05:51:05;;;;;;;19.67;4.10;;;3.60;99.90;;;;;;12453294;28;20056;-38
2021/12/05 05:57:32;;;;;;;11.95;3.70;;;3.50;99.90;;;;;;12446717;28;20081;-39
2021/12/05 06:03:30;;;;;;;18.90;4.38;;;3.50;99.90;;;;;;12444076;28;20050;-39
2021/12/05 06:09:33;;;;;;;14.93;4.25;;;3.40;99.90;;;;;;12451354;28;20054;-38
2021/12/05 06:15:35;;;;;;;10.52;3.97;;;3.30;99.90;;;;;;12448485;28;20077;-39
2021/12/05 06:21:37;;;;;;;14.07;4.82;;;3.20;99.90;;;;;;12476341;28;20054;-38
2021/12/05 06:27:39;;;;;;;16.83;4.07;;;3.00;99.90;;;;;;12499804;28;20049;-39
2021/12/05 06:52:26;;;;;;;14.95;4.00;;;3.00;99.90;;;;;;12503976;28;20584;-38
2021/12/05 06:58:36;;;;;;;12.43;3.95;;;3.00;99.90;;;;;;12499616;28;20103;-37
2021/12/05 07:10:59;;;;;;;14.68;3.25;;;3.10;99.90;;;;;;12509787;28;20080;-39
2021/12/05 07:42:43;;;;;;;8.68;2.63;;;3.30;99.90;;;;;;12507458;28;20136;-38
2021/12/05 07:48:58;;;;;;;12.57;2.58;;;3.30;99.90;;;;;;12512202;28;20057;-39
2021/12/05 08:20:15;;;;;;;11.27;2.78;;;3.30;99.90;;;;;;12498522;28;19964;-38
2021/12/05 08:26:23;;;;;;;13.43;1.98;;;3.30;99.90;;;;;;12496639;28;20093;-38
2021/12/05 08:32:48;;;;;;;7.00;1.92;;;3.40;99.90;;;;;;12498510;28;20048;-41
2021/12/05 10:02:48;;;;;;;10.13;2.22;;;4.20;99.90;;;;;;12508555;28;20128;-39
2021/12/05 10:09:05;;;;;;;13.40;3.42;;;4.30;99.90;;;;;;12504981;28;20060;-39
2021/12/05 10:47:45;;;;;;;11.10;1.80;;;4.90;99.90;;;;;;12503229;28;20053;-38
2021/12/05 10:53:49;;;;;;;11.43;1.88;;;5.00;99.90;;;;;;12499585;28;20045;-39
2021/12/05 10:59:55;;;;;;;9.98;1.83;;;5.10;99.90;;;;;;12507311;28;20143;-38
2021/12/05 11:06:02;;;;;;;10.48;1.67;;;5.10;99.90;;;;;;12504564;28;20060;-38
2021/12/05 11:12:08;;;;;;;7.65;2.17;;;5.10;99.90;;;;;;12500506;28;20041;-39
2021/12/05 11:18:32;;;;;;;8.70;1.67;;;5.10;99.90;;;;;;12503349;28;20053;-37
2021/12/05 11:24:43;;;;;;;10.20;1.98;;;5.20;99.90;;;;;;12506790;28;20104;-39
2021/12/05 11:30:46;;;;;;;5.03;1.45;;;5.50;99.90;;;;;;12522631;28;20080;-38
2021/12/05 11:36:59;;;;;;;7.55;1.40;;;5.70;99.90;;;;;;12506930;28;20136;-38
2021/12/05 11:43:06;;;;;;;11.07;1.70;;;5.80;99.90;;;;;;12499223;28;20418;-38
2021/12/05 11:49:17;;;;;;;9.88;1.70;;;6.10;99.90;;;;;;12504651;28;20084;-38
2021/12/05 11:55:27;;;;;;;7.45;1.30;;;6.10;99.90;;;;;;12499558;28;20037;-39
2021/12/05 12:01:38;;;;;;;8.18;1.30;;;6.00;99.90;;;;;;12518678;28;20076;-39
2021/12/05 12:07:52;;;;;;;7.18;1.50;;;5.90;99.90;;;;;;12522707;28;20057;-38
2021/12/05 12:13:57;;;;;;;8.07;1.27;;;6.00;99.90;;;;;;12504642;28;20065;-38
2021/12/05 12:20:11;;;;;;;7.30;1.25;;;6.10;99.90;;;;;;12496243;28;20112;-39
2021/12/05 12:26:22;;;;;;;6.75;1.17;;;6.00;99.90;;;;;;12454721;28;20142;-39
2021/12/05 12:47:58;;;;;;;7.22;1.40;;;6.00;99.90;;;;;;12001984;29;20048;-38
2021/12/05 12:54:32;;;;;;;4.72;1.67;;;6.00;99.90;;;;;;12164478;28;20092;-39
2021/12/05 13:00:41;;;;;;;7.53;1.67;;;5.90;99.90;;;;;;12432773;28;20050;-37
2021/12/05 13:13:23;;;;;;;7.50;2.20;;;5.80;99.90;;;;;;12432299;28;20648;-38
2021/12/05 13:19:30;;;;;;;6.68;1.35;;;5.70;99.90;;;;;;12447646;28;20052;-38
2021/12/05 13:25:53;;;;;;;6.95;2.20;;;5.60;99.90;;;;;;12487805;28;20057;-38
2021/12/05 13:32:05;;;;;;;4.68;1.42;;;5.60;99.90;;;;;;12480215;28;20053;-39
2021/12/05 13:38:32;;;;;;;4.10;1.50;;;5.90;99.90;;;;;;12490988;28;20053;-38
2021/12/05 13:45:04;;;;;;;6.13;1.58;;;6.00;99.90;;;;;;12492145;28;20099;-38
2021/12/05 13:51:06;;;;;;;5.72;1.50;;;5.90;99.90;;;;;;12487048;28;20093;-38
2021/12/05 13:57:08;;;;;;;5.65;1.40;;;5.80;99.90;;;;;;12485404;28;20052;-39
2021/12/05 14:03:11;;;;;;;9.02;1.98;;;5.70;99.90;;;;;;12495760;28;20594;-38
2021/12/05 14:09:33;;;;;;;7.03;2.00;;;5.60;99.90;;;;;;12497494;28;20057;-39
2021/12/05 14:15:35;;;;;;;8.63;2.10;;;5.60;99.90;;;;;;12488602;28;20076;-38
2021/12/05 14:21:47;;;;;;;5.78;1.70;;;5.50;99.90;;;;;;12482510;28;20048;-39
2021/12/05 14:28:01;;;;;;;6.60;2.15;;;5.50;99.90;;;;;;12482759;28;20064;-39
2021/12/05 14:34:09;;;;;;;5.83;1.70;;;5.40;99.90;;;;;;12479085;28;21045;-38
2021/12/05 14:40:40;;;;;;;7.40;1.73;;;5.50;99.90;;;;;;12467086;28;20053;-39
2021/12/05 14:46:47;;;;;;;4.15;1.25;;;5.40;99.90;;;;;;12484954;28;20139;-38
2021/12/05 14:52:55;;;;;;;8.20;2.38;;;5.40;99.90;;;;;;12496988;28;20441;-39
2021/12/05 14:59:10;;;;;;;7.93;2.40;;;5.10;99.90;;;;;;12476720;28;20048;-40
2021/12/05 15:05:16;;;;;;;4.90;1.67;;;4.90;99.90;;;;;;12494636;28;20083;-39
2021/12/05 15:11:18;;;;;;;10.25;2.50;;;4.90;99.90;;;;;;12486943;28;20099;-39
2021/12/05 15:17:24;;;;;;;7.57;3.15;;;4.70;99.90;;;;;;12493290;28;20391;-39
2021/12/05 15:23:32;;;;;;;7.70;2.72;;;4.60;99.90;;;;;;12492235;28;20099;-38
2021/12/05 15:29:36;;;;;;;8.15;2.72;;;4.50;99.90;;;;;;12465215;28;20056;-39
2021/12/05 15:35:53;;;;;;;7.10;2.22;;;4.40;99.90;;;;;;12485460;28;20045;-38
2021/12/05 15:41:59;;;;;;;5.47;2.30;;;4.30;99.90;;;;;;12494998;28;20494;-37
2021/12/05 15:48:01;;;;;;;5.55;2.53;;;4.10;99.90;;;;;;12489828;28;20092;-38
2021/12/05 15:54:05;;;;;;;8.70;3.40;;;4.10;99.90;;;;;;12489300;28;20084;-38
2021/12/05 16:00:14;;;;;;;8.25;3.40;;;4.10;99.90;;;;;;12489673;28;20045;-37
2021/12/05 16:06:18;;;;;;;10.20;4.35;;;4.10;99.90;;;;;;12466036;28;20497;-39
2021/12/05 16:12:21;;;;;;;10.25;5.18;;;4.00;99.90;;;;;;12486840;28;20069;-37
2021/12/05 16:18:35;;;;;;;14.68;5.13;;;4.10;99.90;;;;;;12489467;28;20073;-37
2021/12/05 16:24:40;;;;;;;16.73;9.07;;;4.10;99.90;;;;;;12474378;28;20046;-38
2021/12/05 16:30:47;;;;;;;14.77;6.03;;;4.00;99.90;;;;;;12486801;28;20099;-39
2021/12/05 16:37:02;;;;;;;22.25;9.40;;;4.00;99.90;;;;;;12486253;28;20145;-38
2021/12/05 16:43:10;;;;;;;22.63;10.60;;;4.00;99.90;;;;;;12488648;28;20053;-38
2021/12/05 16:49:18;;;;;;;16.33;6.80;;;4.10;99.90;;;;;;12460432;28;20463;-38
2021/12/05 16:55:27;;;;;;;12.13;5.35;;;4.10;99.90;;;;;;12491116;28;20102;-37
2021/12/05 17:01:29;;;;;;;18.75;6.25;;;4.00;99.90;;;;;;12486738;28;20048;-39
2021/12/05 17:07:49;;;;;;;12.48;5.55;;;4.00;99.90;;;;;;12470840;28;20768;-39
2021/12/05 17:13:53;;;;;;;16.10;8.07;;;4.00;99.90;;;;;;12486997;28;20425;-39
2021/12/05 17:19:55;;;;;;;16.38;7.63;;;4.00;99.90;;;;;;12483022;28;20076;-39
2021/12/05 17:26:23;;;;;;;15.52;6.25;;;4.00;99.90;;;;;;12474468;28;20061;-38
2021/12/05 17:32:25;;;;;;;16.80;6.80;;;3.90;99.90;;;;;;12477978;28;20057;-37
2021/12/05 17:38:35;;;;;;;16.58;7.63;;;3.90;99.90;;;;;;12491457;28;20056;-37
2021/12/05 17:44:40;;;;;;;22.15;9.27;;;3.90;99.90;;;;;;12478734;28;20061;-39
2021/12/05 17:50:43;;;;;;;12.97;5.80;;;3.90;99.90;;;;;;12496265;28;20394;-37
2021/12/05 17:56:51;;;;;;;17.33;5.95;;;3.80;99.90;;;;;;12488190;28;20298;-37
2021/12/05 18:02:53;;;;;;;17.60;12.18;;;3.80;99.90;;;;;;12485322;28;20532;-38
2021/12/05 18:08:56;;;;;;;16.77;10.32;;;3.80;99.90;;;;;;12494499;28;20068;-39
2021/12/05 18:14:58;;;;;;;15.73;6.53;;;3.90;99.90;;;;;;12493770;28;20049;-38
2021/12/05 18:21:04;;;;;;;11.15;6.00;;;3.80;99.90;;;;;;12491942;28;21104;-39
2021/12/05 18:27:06;;;;;;;13.10;6.78;;;3.80;99.90;;;;;;12490130;28;20053;-38
2021/12/05 18:33:10;;;;;;;14.85;5.90;;;3.90;99.90;;;;;;12483536;28;20103;-38
2021/12/05 18:39:19;;;;;;;17.10;6.30;;;3.90;99.90;;;;;;12490200;28;20076;-38
2021/12/05 18:45:24;;;;;;;12.15;5.70;;;3.90;99.90;;;;;;12493872;28;20064;-39
2021/12/05 18:51:25;;;;;;;;;;;3.90;99.90;;;;;;12490496;28;20530;-38
2021/12/05 18:57:27;;;;;;;12.15;5.50;;;3.80;99.90;;;;;;12490744;28;20360;-39
2021/12/05 19:16:08;;;;;;;14.75;6.75;;;3.80;99.90;;;;;;12488847;28;20056;-38
2021/12/05 19:22:14;;;;;;;11.32;6.03;;;3.70;99.90;;;;;;12486834;28;20044;-39
2021/12/05 19:28:16;;;;;;;12.85;5.90;;;3.70;99.90;;;;;;12489655;28;20045;-38
2021/12/05 19:34:19;;;;;;;13.05;5.20;;;3.70;99.90;;;;;;12490307;28;20045;-38
2021/12/05 19:40:23;;;;;;;14.13;5.03;;;3.70;99.90;;;;;;12489485;28;20203;-41
2021/12/05 19:46:25;;;;;;;10.38;4.38;;;3.70;99.90;;;;;;12491580;28;20041;-38
2021/12/05 19:52:28;;;;;;;10.00;4.00;;;3.70;99.90;;;;;;12489078;28;20044;-39
2021/12/05 19:58:30;;;;;;;11.05;4.47;;;3.70;99.90;;;;;;12483088;28;20053;-37
2021/12/05 20:04:32;;;;;;;9.07;4.47;;;3.70;99.90;;;;;;12475668;28;20099;-38
2021/12/05 20:10:36;;;;;;;15.30;5.18;;;3.70;99.90;;;;;;12488309;28;20064;-37
2021/12/05 20:16:38;;;;;;;11.63;5.27;;;3.80;99.90;;;;;;12485009;28;20049;-37
2021/12/05 20:22:41;;;;;;;12.43;6.35;;;3.80;99.90;;;;;;12486696;28;20303;-38
2021/12/05 20:28:44;;;;;;;10.00;5.28;;;3.80;99.90;;;;;;12484428;28;20483;-38
2021/12/05 20:34:46;;;;;;;13.45;6.05;;;3.70;99.90;;;;;;12483346;28;21501;-38
2021/12/05 20:40:49;;;;;;;10.82;5.97;;;3.80;99.90;;;;;;12488735;28;20643;-38
2021/12/05 20:46:52;;;;;;;15.18;6.07;;;3.70;99.90;;;;;;12486806;28;20085;-38
2021/12/05 20:52:55;;;;;;;22.42;6.95;;;3.70;99.90;;;;;;12484432;28;20052;-39
2021/12/05 20:58:58;;;;;;;10.43;5.70;;;3.70;99.90;;;;;;12487107;28;20164;-38
2021/12/05 21:05:00;;;;;;;13.57;5.93;;;3.70;99.90;;;;;;12479382;28;20134;-38
2021/12/05 21:11:12;;;;;;;19.73;8.07;;;3.70;99.90;;;;;;12482796;28;20052;-38
2021/12/05 21:17:16;;;;;;;18.38;7.75;;;3.70;99.90;;;;;;12487307;28;20497;-38
2021/12/05 21:23:18;;;;;;;13.07;6.80;;;3.70;99.90;;;;;;12483490;28;20090;-37
2021/12/05 21:29:21;;;;;;;14.35;6.97;;;3.70;99.90;;;;;;12485339;28;20514;-37
2021/12/05 21:35:30;;;;;;;16.38;7.72;;;3.70;99.90;;;;;;12484313;28;20505;-39
2021/12/05 21:41:32;;;;;;;19.52;9.07;;;3.80;99.90;;;;;;12477163;28;20128;-39
2021/12/05 21:47:34;;;;;;;21.67;9.55;;;3.80;99.90;;;;;;12489209;28;20126;-39
2021/12/05 21:53:38;;;;;;;15.15;8.40;;;3.70;99.90;;;;;;12480943;28;20053;-38
2021/12/05 21:59:40;;;;;;;19.87;9.80;;;3.70;99.90;;;;;;12477924;28;20079;-39
2021/12/05 22:05:43;;;;;;;19.00;9.43;;;3.60;99.90;;;;;;12485734;28;20049;-41
2021/12/05 22:11:45;;;;;;;23.95;10.82;;;3.60;99.90;;;;;;12479520;28;20053;-38
2021/12/05 22:17:48;;;;;;;24.52;12.05;;;3.50;99.90;;;;;;12477169;28;20179;-40
2021/12/05 22:23:59;;;;;;;19.55;11.52;;;3.40;99.90;;;;;;12478665;28;20053;-39
2021/12/05 22:30:02;;;;;;;21.60;11.82;;;3.40;99.90;;;;;;12489326;28;20391;-37
2021/12/05 22:36:05;;;;;;;26.05;11.98;;;3.30;99.90;;;;;;12487126;28;20049;-37
2021/12/05 22:42:08;;;;;;;29.23;14.65;;;3.30;99.90;;;;;;12494017;28;20076;-38
2021/12/05 22:48:11;;;;;;;25.85;14.07;;;3.30;99.90;;;;;;12494953;28;20060;-39
2021/12/05 22:54:13;;;;;;;26.92;14.90;;;3.30;99.90;;;;;;12494853;28;20137;-37
2021/12/05 23:00:39;;;;;;;28.92;14.43;;;3.30;99.90;;;;;;12481600;28;20433;-37
2021/12/05 23:06:42;;;;;;;31.00;16.05;;;3.30;99.90;;;;;;12474182;28;20540;-39
2021/12/05 23:12:44;;;;;;;29.88;15.07;;;3.20;99.90;;;;;;12483351;28;20475;-38
2021/12/05 23:18:47;;;;;;;30.70;15.35;;;3.30;99.90;;;;;;12475953;28;20048;-39
2021/12/05 23:24:49;;;;;;;32.38;15.73;;;3.30;99.90;;;;;;12478359;28;20068;-37
2021/12/05 23:30:52;;;;;;;31.27;14.80;;;3.30;99.90;;;;;;12486058;28;20061;-37
2021/12/05 23:36:54;;;;;;;31.70;15.68;;;3.20;99.90;;;;;;12483833;28;20057;-37
2021/12/05 23:42:58;;;;;;;28.98;14.85;;;3.20;99.90;;;;;;12486163;28;20061;-37
2021/12/05 23:49:00;;;;;;;32.08;16.50;;;3.20;99.90;;;;;;12482789;28;20053;-38
2021/12/05 23:55:09;;;;;;;31.17;15.43;;;3.20;99.90;;;;;;12470309;28;20110;-38
